• Join FlightAware (Why Join?)
  • Login
  • US Flag 
06:05AM EDT


 

Airport Tracker/Info


-or-


 

Live Flight TrackerFlight Track Log ✈ UAL4530 ✈ 28-Apr-2013 ✈ KEWR - KMCI

Flight Track Log - Related Links

Times and Time Zones

All times are in EDT time to prevent confusion due to time zone crossing. See the UAL4530 flight status page for this flight to view local times or setup timezone preferences in your user account.

Time Position Orientation Groundspeed Altitude Reporting Facility
EDT Latitude Longitude Course Direction KTS MPH feet Rate Location/Type
12:43PM 40.6411 -74.1925 270° West 176 203 1,800  Level New York Center
12:44PM 40.6394 -74.2553 268° West 237 273 3,600 1,980 Climbing New York Center
12:45PM 40.6594 -74.3492 286° West 256 295 5,700 2,100 Climbing New York Center
12:46PM 40.7500 -74.7003 276° West  Level FlightAware Approximate
12:46PM 40.6833 -74.4500 287° West 277 319 8,200  Level New York TRACON
12:47PM 40.7607 -74.8387 276° West  Level FlightAware Approximate
12:47PM 40.7000 -74.5500 282° West 284 327 10,000  Level New York TRACON
12:48PM 40.7833 -74.9728 270° West  Level FlightAware Approximate
12:48PM 40.7206 -74.6564 284° West 326 375 10,700  Level New York Center
12:49PM 40.7397 -74.7669 283° West 337 388 12,500 1,200 Climbing New York Center
12:50PM 40.7606 -74.8917 282° West 343 395 13,200 900 Climbing New York Center
12:51PM 40.7836 -75.0081 285° West 364 419 14,300 1,140 Climbing New York Center
12:52PM 40.7992 -75.1517 278° West 364 419 15,500 1,080 Climbing New York Center
12:53PM 40.7794 -75.2847 259° West 364 419 16,600 1,080 Climbing New York Center
12:54PM 40.7536 -75.4172 256° West 372 428 17,700 960 Climbing New York Center
12:55PM 40.7069 -75.5400 243° Southwest 377 434 18,600 900 Climbing New York Center
12:56PM 40.6650 -75.6492 243° Southwest 384 442 19,500 900 Climbing New York Center
12:57PM 40.6203 -75.7744 245° Southwest 384 442 20,500 960 Climbing New York Center
12:58PM 40.5733 -75.8967 243° Southwest 384 442 21,500 1,020 Climbing New York Center
12:59PM 40.5217 -76.0267 242° Southwest 389 448 22,600 1,020 Climbing New York Center
01:00PM 40.4744 -76.1486 243° Southwest 389 448 23,600 1,020 Climbing New York Center
01:01PM 40.4272 -76.2731 244° Southwest 384 442 24,700 1,260 Climbing New York Center
01:02PM 40.3819 -76.3922 244° Southwest 384 442 26,200 1,380 Climbing New York Center
01:03PM 40.3389 -76.5058 244° Southwest 368 423 27,500 1,140 Climbing New York Center
01:04PM 40.2939 -76.6164 242° Southwest 356 410 28,600 1,080 Climbing New York Center
01:05PM 40.2508 -76.7269 243° Southwest 350 403 29,700 1,140 Climbing New York Center
01:06PM 40.2056 -76.8372 242° Southwest 344 396 30,900 1,080 Climbing New York Center
01:07PM 40.1606 -76.9419 241° Southwest 344 396 32,000 1,140 Climbing New York Center
01:08PM 40.1125 -77.0625 243° Southwest 338 389 33,200 960 Climbing New York Center
01:09PM 40.0692 -77.1700 242° Southwest 338 389 34,000 360 Climbing New York Center
01:10PM 40.0233 -77.2850 243° Southwest 343 395 34,000 420 Level New York Center
01:13PM 39.9631 -77.6658 258° West 375 432 35,800 480 Climbing Cleveland Center
01:14PM 39.9683 -77.7983 273° West 368 423 36,000 60 Climbing Cleveland Center
01:15PM 39.9717 -77.9283 272° West 363 418 36,000  Level Cleveland Center
01:16PM 39.9767 -78.0636 273° West 363 418 36,000  Level Cleveland Center
01:17PM 39.9797 -78.1989 272° West 368 423 36,000  Level Cleveland Center
01:18PM 39.9786 -78.3478 269° West 374 430 36,000  Level Cleveland Center
01:19PM 39.9853 -78.4778 274° West 369 425 36,000  Level Cleveland Center
01:20PM 39.9853 -78.6050 270° West 364 419 36,000  Level Cleveland Center
01:21PM 39.9897 -78.7350 273° West 364 419 36,000  Level Cleveland Center
01:22PM 39.9939 -78.8650 272° West 364 419 36,000  Level Cleveland Center
01:23PM 39.9978 -78.9922 272° West 364 419 36,000  Level Cleveland Center
01:24PM 39.9994 -79.1222 271° West 364 419 36,000  Level Cleveland Center
01:25PM 40.0031 -79.2525 272° West 364 419 36,000  Level Cleveland Center
01:26PM 40.0044 -79.3825 271° West 364 419 36,000  Level Cleveland Center
01:27PM 40.0058 -79.5181 271° West 364 419 36,000  Level Cleveland Center
01:28PM 40.0092 -79.6533 272° West 364 419 36,000  Level Cleveland Center
01:29PM 40.0103 -79.7861 271° West 364 419 36,000  Level Cleveland Center
01:30PM 40.0111 -79.9217 271° West 364 419 36,000  Level Cleveland Center
01:31PM 40.0139 -80.0600 272° West 369 425 36,000  Level Cleveland Center
01:32PM 40.0144 -80.1928 270° West 369 425 36,000  Level Cleveland Center
01:33PM 40.0147 -80.3311 270° West 369 425 36,000  Level Cleveland Center
01:34PM 40.0169 -80.4611 271° West 374 430 36,000  Level Cleveland Center
01:35PM 40.0192 -80.5911 271° West 362 417 36,000  Level Cleveland Center
01:36PM 40.0192 -80.7131 270° West 355 409 36,000  Level Cleveland Center
01:37PM 40.0189 -80.8297 270° West 342 394 36,000  Level Cleveland Center
01:38PM 40.0186 -80.9464 270° West 331 381 36,000  Level Cleveland Center
01:40PM 40.0106 -81.1883 268° West 325 374 36,000  Level Indianapolis Center
01:41PM 40.0100 -81.3164 270° West 345 397 36,000  Level Indianapolis Center
01:42PM 40.0069 -81.4456 268° West 353 406 36,000  Level Indianapolis Center
01:43PM 40.0036 -81.5800 268° West 363 418 36,000  Level Indianapolis Center
01:44PM 40.0014 -81.7169 269° West 371 427 36,000 -60 Level Indianapolis Center
01:45PM 39.9989 -81.8567 269° West 366 421 35,900 -60 Descending Indianapolis Center
01:46PM 39.9953 -81.9875 268° West 359 413 35,900  Level Indianapolis Center
01:47PM 39.9919 -82.1139 268° West 351 404 36,000  Climbing Indianapolis Center
01:48PM 39.9892 -82.2394 268° West 345 397 36,000  Level Indianapolis Center
01:49PM 39.9856 -82.3869 268° West 347 399 36,000  Level Indianapolis Center
01:50PM 39.9814 -82.5156 268° West 351 404 36,000  Level Indianapolis Center
01:51PM 39.9783 -82.6514 268° West 369 425 36,000  Level Indianapolis Center
01:52PM 39.9731 -82.7919 267° West 381 438 36,000 -60 Level Indianapolis Center
01:53PM 39.9689 -82.9367 268° West 396 456 35,900  Descending Indianapolis Center
01:54PM 39.9647 -83.0822 268° West 399 459 36,000  Climbing Indianapolis Center
01:55PM 39.9619 -83.2294 269° West 404 465 36,000  Level Indianapolis Center
01:56PM 39.9572 -83.3983 268° West 402 463 36,000  Level Indianapolis Center
01:57PM 39.9511 -83.5392 267° West 397 457 36,000  Level Indianapolis Center
01:58PM 39.9456 -83.6806 267° West 396 456 36,000  Level Indianapolis Center
01:59PM 39.9403 -83.8239 267° West 396 456 36,000  Level Indianapolis Center
02:00PM 39.9344 -83.9703 267° West 401 461 36,000  Level Indianapolis Center
02:01PM 39.9286 -84.1144 267° West 398 458 36,000  Level Indianapolis Center
02:02PM 39.9214 -84.2853 267° West 401 461 36,000 -60 Level Indianapolis Center
02:03PM 39.9150 -84.4319 267° West 403 464 35,900  Descending Indianapolis Center
02:04PM 39.9083 -84.5811 267° West 411 473 36,000  Climbing Indianapolis Center
02:06PM 39.9017 -84.7314 267° West 412 474 36,000  Level Indianapolis Center
02:07PM 39.8947 -84.8808 267° West 412 474 36,000  Level Indianapolis Center
02:08PM 39.8867 -85.0464 266° West 411 473 36,000  Level Indianapolis Center
02:09PM 39.8797 -85.1956 267° West 410 472 36,000  Level Indianapolis Center
02:10PM 39.8711 -85.3406 266° West 403 464 36,000  Level Indianapolis Center
02:11PM 39.8644 -85.4861 267° West 401 461 36,000  Level Indianapolis Center
02:12PM 39.8561 -85.6294 266° West 397 457 36,000  Level Indianapolis Center
02:13PM 39.8519 -85.7781 268° West 406 467 36,000  Level Indianapolis Center
02:14PM 39.8547 -85.9250 271° West 407 468 36,000  Level Indianapolis Center
02:15PM 39.8564 -86.0986 271° West 412 474 36,000  Level Indianapolis Center
02:16PM 39.8694 -86.2450 277° West 413 475 36,000  Level Indianapolis Center
02:17PM 39.8903 -86.3897 281° West 414 476 36,000  Level Indianapolis Center
02:18PM 39.9114 -86.5361 281° West 413 475 36,000  Level Indianapolis Center
02:19PM 39.9308 -86.6811 280° West 408 470 36,000  Level Indianapolis Center
02:20PM 39.9422 -86.8578 275° West 419 482 36,000  Level Indianapolis Center
02:21PM 39.9392 -87.0106 269° West 422 486 36,000  Level Indianapolis Center
02:22PM 39.9344 -87.1658 268° West 425 489 36,000  Level Indianapolis Center
02:23PM 39.9306 -87.3214 268° West 427 491 36,000  Level Indianapolis Center
02:24PM 39.9250 -87.4781 267° West 430 495 36,000  Level Indianapolis Center
02:25PM 39.9203 -87.6347 268° West 431 496 36,000  Level Indianapolis Center
02:26PM 39.9153 -87.7914 268° West 430 495 36,000  Level Indianapolis Center
02:27PM 39.9097 -87.9739 268° West 431 496 36,000  Level Indianapolis Center
02:28PM 39.9044 -88.1086 267° West 429 494 36,000  Level Kansas City Center
02:29PM 39.8992 -88.2639 268° West 428 493 36,000  Level Kansas City Center
02:30PM 39.8925 -88.4178 267° West 428 493 36,000  Level Kansas City Center
02:31PM 39.8889 -88.5675 268° West 420 483 36,000  Level Kansas City Center
02:32PM 39.8825 -88.7183 267° West 416 479 36,000  Level Kansas City Center
02:33PM 39.8756 -88.8697 267° West 418 481 36,000  Level Kansas City Center
02:34PM 39.8689 -89.0239 267° West 423 487 36,000  Level Kansas City Center
02:35PM 39.8614 -89.2092 267° West 426 490 36,000  Level Kansas City Center
02:36PM 39.8539 -89.3631 266° West 426 490 36,000  Level Kansas City Center
02:37PM 39.8469 -89.5156 267° West 422 486 36,000  Level Kansas City Center
02:38PM 39.8397 -89.6669 266° West 420 483 36,000  Level Kansas City Center
02:39PM 39.8406 -89.8158 270° West 414 476 36,000  Level Kansas City Center
02:40PM 39.8428 -89.9633 271° West 410 472 36,000  Level Kansas City Center
02:41PM 39.8431 -90.1094 270° West 406 467 36,000  Level Kansas City Center
02:43PM 39.8447 -90.2906 271° West 411 473 36,000  Level Kansas City Center
02:44PM 39.8461 -90.4478 271° West 423 487 36,000  Level Kansas City Center
02:45PM 39.8475 -90.5983 271° West 422 486 36,000  Level Kansas City Center
02:46PM 39.8467 -90.7489 270° West 416 479 36,000  Level Kansas City Center
02:47PM 39.8472 -90.8981 270° West 415 478 36,000  Level Kansas City Center
02:48PM 39.8481 -91.0522 270° West 417 480 36,000  Level Kansas City Center
02:49PM 39.8472 -91.2047 270° West 420 483 36,000  Level Kansas City Center
02:50PM 39.8400 -91.3869 267° West 421 484 36,000  Level Kansas City Center
02:51PM 39.8283 -91.5367 264° West 420 483 36,000  Level Kansas City Center
02:52PM 39.8172 -91.6869 265° West 419 482 36,000  Level Kansas City Center
02:53PM 39.8067 -91.8364 265° West 419 482 36,000  Level Kansas City Center
02:54PM 39.7953 -91.9856 264° West 417 480 36,000  Level Kansas City Center
02:55PM 39.7831 -92.1367 264° West 419 482 36,000  Level Kansas City Center
02:56PM 39.7686 -92.3172 264° West 420 483 36,000 -480 Level Kansas City Center
02:57PM 39.7553 -92.4661 263° West 418 481 35,100 -960 Descending Kansas City Center
02:58PM 39.7442 -92.6144 264° West 416 479 34,100 -1,080 Descending Kansas City Center
02:59PM 39.7308 -92.7647 263° West 417 480 32,900 -1,740 Descending Kansas City Center
03:00PM 39.7169 -92.9167 263° West 422 486 30,600 -2,580 Descending Kansas City Center
03:01PM 39.7039 -93.0697 264° West 425 489 27,600 -3,480 Descending Kansas City Center
03:02PM 39.6889 -93.2508 264° West 421 484 23,500 -3,720 Descending Kansas City Center
03:03PM 39.6744 -93.3922 262° West 406 467 20,000 -3,360 Descending Kansas City Center
03:04PM 39.6628 -93.5314 264° West 398 458 16,600 -3,120 Descending Kansas City Center
03:05PM 39.6497 -93.6683 263° West 386 444 13,600 -2,640 Descending Kansas City Center
03:06PM 39.6356 -93.8150 263° West 365 420 11,200 -1,800 Descending Kansas City Center
03:07PM 39.6122 -93.9153 253° West 305 351 10,000 -1,380 Descending Kansas City Center
03:08PM 39.5633 -94.0089 236° Southwest 280 322 8,400 -1,020 Descending Kansas City Center
03:09PM 39.5258 -94.0886 239° Southwest 272 313 8,000 -300 Descending Kansas City Center
03:10PM 39.5081 -94.1936 258° West 268 308 7,900 -540 Descending Kansas City Center
03:11PM 39.4919 -94.2808 257° West 261 300 7,000 -540 Descending Kansas City Center
03:12PM 39.4753 -94.3781 258° West 250 288 6,800 -540 Descending Kansas City Center
03:14PM 39.4606 -94.4631 257° West 253 291 5,900 -1,020 Descending Kansas City Center
03:15PM 39.4436 -94.5586 257° West 246 283 4,700 -1,020 Descending Kansas City Center
03:16PM 39.3950 -94.6172 223° Southwest 248 285 3,800 -900 Descending Kansas City Center